createdAt,value
2017-06-16T00:00:50.014Z,0
2017-06-16T00:01:50.360Z,0
2017-06-16T00:02:50.389Z,0
2017-06-16T00:03:50.419Z,0
2017-06-16T00:04:50.445Z,0
2017-06-16T00:05:50.626Z,0
2017-06-16T00:06:50.193Z,0
2017-06-16T00:07:50.542Z,0
2017-06-16T00:08:50.560Z,0
2017-06-16T00:09:50.284Z,0
2017-06-16T00:10:50.628Z,0
2017-06-16T00:11:50.656Z,0
2017-06-16T00:12:50.374Z,0
2017-06-16T00:13:50.718Z,0
2017-06-16T00:14:50.754Z,0
2017-06-16T00:15:50.768Z,0
2017-06-16T00:16:50.484Z,0
2017-06-16T00:17:50.822Z,0
2017-06-16T00:18:50.856Z,0
2017-06-16T00:19:50.891Z,0
2017-06-16T00:20:51.059Z,0
2017-06-16T00:21:50.950Z,0
2017-06-16T00:22:50.979Z,0
2017-06-16T00:23:51.011Z,0
2017-06-16T00:24:51.036Z,0
2017-06-16T00:25:51.072Z,0
2017-06-16T00:26:50.785Z,0
2017-06-16T00:27:50.816Z,0
2017-06-16T00:28:50.838Z,0
2017-06-16T00:29:51.196Z,0
2017-06-16T00:30:50.845Z,0
2017-06-16T00:31:50.329Z,0
2017-06-16T00:32:50.958Z,0
2017-06-16T00:33:50.991Z,0
2017-06-16T00:34:51.023Z,0
2017-06-16T00:35:51.052Z,0
2017-06-16T00:36:51.398Z,0
2017-06-16T00:37:51.107Z,0
2017-06-16T00:38:51.458Z,0
2017-06-16T00:39:50.852Z,0
2017-06-16T00:40:51.769Z,0
2017-06-16T00:41:51.539Z,0
2017-06-16T00:42:51.262Z,0
2017-06-16T00:43:51.603Z,0
2017-06-16T00:44:51.319Z,0
2017-06-16T00:45:51.896Z,0
2017-06-16T00:46:51.678Z,0
2017-06-16T00:47:51.713Z,0
2017-06-16T00:48:51.751Z,0
2017-06-16T00:49:51.464Z,0
2017-06-16T00:50:52.057Z,0
2017-06-16T00:51:51.521Z,0
2017-06-16T00:52:51.875Z,0
2017-06-16T00:53:51.579Z,0
2017-06-16T00:54:51.924Z,0
2017-06-16T00:55:51.889Z,0
2017-06-16T00:56:51.670Z,0
2017-06-16T00:57:51.707Z,0
2017-06-16T00:58:51.728Z,0
2017-06-16T00:59:51.752Z,0
2017-06-16T01:00:52.028Z,0
2017-06-16T01:01:52.127Z,0
2017-06-16T01:02:51.855Z,0
2017-06-16T01:03:51.571Z,0
2017-06-16T01:04:52.212Z,0
2017-06-16T01:05:52.209Z,0
2017-06-16T01:06:51.966Z,0
2017-06-16T01:07:51.054Z,0
2017-06-16T01:08:52.023Z,0
2017-06-16T01:09:52.373Z,0
2017-06-16T01:10:52.358Z,0
2017-06-16T01:11:52.447Z,0
2017-06-16T01:12:52.149Z,0
2017-06-16T01:13:52.475Z,0
2017-06-16T01:14:52.187Z,0
2017-06-16T01:15:52.504Z,0
2017-06-16T01:16:52.574Z,0
2017-06-16T01:17:52.304Z,0
2017-06-16T01:18:52.319Z,0
2017-06-16T01:19:52.034Z,0
2017-06-16T01:20:52.623Z,0
2017-06-16T01:21:52.736Z,0
2017-06-16T01:22:52.750Z,0
2017-06-16T01:23:52.474Z,0
2017-06-16T01:24:52.814Z,0
2017-06-16T01:25:52.541Z,0
2017-06-16T01:26:52.881Z,0
2017-06-16T01:27:52.579Z,0
2017-06-16T01:28:52.911Z,0
2017-06-16T01:29:52.963Z,0
2017-06-16T01:30:53.229Z,0
2017-06-16T01:31:53.010Z,0
2017-06-16T01:32:52.724Z,0
2017-06-16T01:33:52.759Z,0
2017-06-16T01:34:52.781Z,0
2017-06-16T01:35:53.376Z,0
2017-06-16T01:36:52.534Z,0
2017-06-16T01:37:53.177Z,0
2017-06-16T01:38:52.271Z,0
2017-06-16T01:39:52.935Z,0
2017-06-16T01:40:52.960Z,0
2017-06-16T01:41:52.981Z,0
2017-06-16T01:42:52.710Z,0
2017-06-16T01:43:53.366Z,0
2017-06-16T01:44:52.780Z,0
2017-06-16T01:45:52.793Z,0
2017-06-16T01:46:53.139Z,0
2017-06-16T01:47:52.852Z,0
2017-06-16T01:48:53.514Z,0
2017-06-16T01:49:52.915Z,0
2017-06-16T01:50:53.813Z,0
2017-06-16T01:51:53.270Z,0
2017-06-16T01:52:53.319Z,0
2017-06-16T01:53:53.026Z,0
2017-06-16T01:54:53.056Z,0
2017-06-16T01:55:53.648Z,0
2017-06-16T01:56:53.749Z,0
2017-06-16T01:57:53.777Z,0
2017-06-16T01:58:53.182Z,0
2017-06-16T01:59:53.837Z,0
2017-06-16T02:00:54.113Z,0
2017-06-16T02:01:53.586Z,0
2017-06-16T02:02:53.914Z,0
2017-06-16T02:03:53.951Z,0
2017-06-16T02:04:53.670Z,0
2017-06-16T02:05:54.268Z,0
2017-06-16T02:06:54.038Z,0
2017-06-16T02:07:53.763Z,0
2017-06-16T02:08:54.098Z,0
2017-06-16T02:09:54.126Z,0
2017-06-16T02:10:53.782Z,0
2017-06-16T02:11:54.185Z,0
2017-06-16T02:12:53.586Z,0
2017-06-16T02:13:54.245Z,0
2017-06-16T02:14:53.956Z,0
2017-06-16T02:15:53.989Z,0
2017-06-16T02:16:54.330Z,0
2017-06-16T02:17:54.043Z,0
2017-06-16T02:18:54.390Z,0
2017-06-16T02:19:53.792Z,0
2017-06-16T02:20:53.825Z,0
2017-06-16T02:21:54.169Z,0
2017-06-16T02:22:54.195Z,0
2017-06-16T02:23:54.527Z,0
2017-06-16T02:24:54.293Z,0
2017-06-16T02:25:54.525Z,0
2017-06-16T02:26:54.621Z,0
2017-06-16T02:27:54.346Z,0
2017-06-16T02:28:54.367Z,0
2017-06-16T02:29:54.387Z,0
2017-06-16T02:30:54.677Z,0
2017-06-16T02:31:54.761Z,0
2017-06-16T02:32:54.794Z,0
2017-06-16T02:33:54.192Z,0
2017-06-16T02:34:54.548Z,0
2017-06-16T02:35:54.829Z,0
2017-06-16T02:36:54.625Z,0
2017-06-16T02:37:54.946Z,0
2017-06-16T02:38:54.343Z,0
2017-06-16T02:39:55.025Z,0
2017-06-16T02:40:54.958Z,0
2017-06-16T02:41:54.433Z,0
2017-06-16T02:42:55.083Z,0
2017-06-16T02:43:54.483Z,0
2017-06-16T02:44:54.536Z,0
2017-06-16T02:45:55.112Z,0
2017-06-16T02:46:54.895Z,0
2017-06-16T02:47:55.244Z,0
2017-06-16T02:48:55.271Z,0
2017-06-16T02:49:54.676Z,0
2017-06-16T02:50:55.256Z,0
2017-06-16T02:51:55.350Z,0
2017-06-16T02:52:55.067Z,0
2017-06-16T02:53:55.108Z,0
2017-06-16T02:54:55.141Z,0
2017-06-16T02:55:55.717Z,0
2017-06-16T02:56:55.502Z,0
2017-06-16T02:57:55.530Z,0
2017-06-16T02:58:55.555Z,0
2017-06-16T02:59:55.584Z,0
2017-06-16T03:00:55.561Z,0
2017-06-16T03:01:54.718Z,0
2017-06-16T03:02:55.358Z,0
2017-06-16T03:03:55.084Z,0
2017-06-16T03:04:55.725Z,0
2017-06-16T03:05:55.706Z,0
2017-06-16T03:06:55.796Z,0
2017-06-16T03:07:55.507Z,0
2017-06-16T03:08:55.228Z,0
2017-06-16T03:09:55.259Z,0
2017-06-16T03:10:55.525Z,0
2017-06-16T03:11:55.311Z,0
2017-06-16T03:12:55.959Z,0
2017-06-16T03:13:55.682Z,0
2017-06-16T03:14:56.016Z,0
2017-06-16T03:15:55.989Z,0
2017-06-16T03:16:55.145Z,0
2017-06-16T03:17:55.796Z,0
2017-06-16T03:18:55.824Z,0
2017-06-16T03:19:55.228Z,0
2017-06-16T03:20:56.190Z,0
2017-06-16T03:21:55.918Z,0
2017-06-16T03:22:55.947Z,0
2017-06-16T03:23:56.284Z,0
2017-06-16T03:24:55.683Z,0
2017-06-16T03:25:55.713Z,0
2017-06-16T03:26:56.309Z,0
2017-06-16T03:27:55.775Z,0
2017-06-16T03:28:55.488Z,0
2017-06-16T03:29:56.455Z,0
2017-06-16T03:30:56.174Z,0
2017-06-16T03:31:56.762Z,0
2017-06-16T03:32:56.223Z,0
2017-06-16T03:33:56.569Z,0
2017-06-16T03:34:56.617Z,0
2017-06-16T03:35:56.321Z,0
2017-06-16T03:36:56.350Z,0
2017-06-16T03:37:56.066Z,0
2017-06-16T03:38:56.721Z,0
2017-06-16T03:39:56.744Z,0
2017-06-16T03:40:56.153Z,0
2017-06-16T03:41:56.435Z,0
2017-06-16T03:42:56.831Z,0
2017-06-16T03:43:56.863Z,0
2017-06-16T03:44:56.585Z,0
2017-06-16T03:45:56.917Z,0
2017-06-16T03:46:56.950Z,0
2017-06-16T03:47:56.974Z,0
2017-06-16T03:48:56.694Z,0
2017-06-16T03:49:57.037Z,0
2017-06-16T03:50:56.753Z,0
2017-06-16T03:51:56.722Z,0
2017-06-16T03:52:57.112Z,0
2017-06-16T03:53:57.196Z,0
2017-06-16T03:54:56.565Z,0
2017-06-16T03:55:57.214Z,0
2017-06-16T03:56:57.494Z,0
2017-06-16T03:57:57.271Z,0
2017-06-16T03:58:56.669Z,0
2017-06-16T03:59:57.035Z,0
2017-06-16T04:00:57.043Z,0
2017-06-16T04:01:57.078Z,0
2017-06-16T04:02:56.790Z,0
2017-06-16T04:03:56.507Z,0
2017-06-16T04:04:56.840Z,0
2017-06-16T04:05:57.514Z,0
2017-06-16T04:06:57.227Z,0
2017-06-16T04:07:57.559Z,0
2017-06-16T04:08:56.959Z,0
2017-06-16T04:09:57.622Z,0
2017-06-16T04:10:57.641Z,0
2017-06-16T04:11:57.928Z,0
2017-06-16T04:12:57.711Z,0
2017-06-16T04:13:57.755Z,0
2017-06-16T04:14:57.453Z,0
2017-06-16T04:15:57.169Z,0
2017-06-16T04:16:57.761Z,0
2017-06-16T04:17:57.543Z,0
2017-06-16T04:18:57.564Z,0
2017-06-16T04:19:57.913Z,0
2017-06-16T04:20:57.311Z,0
2017-06-16T04:21:57.651Z,0
2017-06-16T04:22:57.055Z,0
2017-06-16T04:23:58.024Z,0
2017-06-16T04:24:58.049Z,0
2017-06-16T04:25:57.765Z,0
2017-06-16T04:26:57.739Z,0
2017-06-16T04:27:57.832Z,0
2017-06-16T04:28:58.168Z,0
2017-06-16T04:29:58.199Z,0
2017-06-16T04:30:58.226Z,0
2017-06-16T04:31:58.195Z,5
2017-06-16T04:32:57.657Z,5
2017-06-16T04:33:57.991Z,5
2017-06-16T04:34:57.405Z,5
2017-06-16T04:35:57.741Z,5
2017-06-16T04:36:58.341Z,5
2017-06-16T04:37:58.118Z,5
2017-06-16T04:38:58.444Z,5
2017-06-16T04:39:57.856Z,5
2017-06-16T04:40:58.513Z,5
2017-06-16T04:41:57.912Z,5
2017-06-16T04:42:58.515Z,5
2017-06-16T04:43:57.964Z,5
2017-06-16T04:44:58.334Z,5
2017-06-16T04:45:58.346Z,5
2017-06-16T04:46:58.374Z,5
2017-06-16T04:47:58.656Z,5
2017-06-16T04:48:58.120Z,5
2017-06-16T04:49:58.136Z,5
2017-06-16T04:50:58.802Z,5
2017-06-16T04:51:58.522Z,5
2017-06-16T04:52:58.798Z,5
2017-06-16T04:53:58.887Z,5
2017-06-16T04:54:58.920Z,5
2017-06-16T04:55:58.634Z,5
2017-06-16T04:56:58.974Z,5
2017-06-16T04:57:58.996Z,5
2017-06-16T04:58:58.721Z,5
2017-06-16T04:59:58.752Z,5
2017-06-16T05:00:58.778Z,5
2017-06-16T05:01:58.495Z,5
2017-06-16T05:02:59.395Z,5
2017-06-16T05:03:59.175Z,5
2017-06-16T05:04:59.208Z,5
2017-06-16T05:05:58.930Z,5
2017-06-16T05:06:59.270Z,5
2017-06-16T05:07:58.663Z,5
2017-06-16T05:08:58.690Z,5
2017-06-16T05:09:58.717Z,5
2017-06-16T05:10:59.070Z,5
2017-06-16T05:11:59.415Z,5
2017-06-16T05:12:59.683Z,5
2017-06-16T05:13:58.837Z,5
2017-06-16T05:14:59.500Z,10
2017-06-16T05:15:59.525Z,10
2017-06-16T05:16:59.551Z,10
2017-06-16T05:17:59.535Z,10
2017-06-16T05:18:59.615Z,10
2017-06-16T05:19:59.019Z,10
2017-06-16T05:20:59.354Z,10
2017-06-16T05:21:59.382Z,10
2017-06-16T05:22:59.347Z,10
2017-06-16T05:23:59.757Z,10
2017-06-16T05:24:59.481Z,10
2017-06-16T05:25:59.806Z,5
2017-06-16T05:26:59.546Z,5
2017-06-16T05:28:00.139Z,5
2017-06-16T05:28:59.588Z,5
2017-06-16T05:29:59.941Z,5
2017-06-16T05:30:59.957Z,5
2017-06-16T05:32:00.001Z,5
2017-06-16T05:32:59.967Z,5
2017-06-16T05:34:00.048Z,5
2017-06-16T05:34:59.447Z,5
2017-06-16T05:36:00.101Z,5
2017-06-16T05:36:59.823Z,5
2017-06-16T05:37:59.796Z,10
2017-06-16T05:38:59.885Z,10
2017-06-16T05:39:59.900Z,10
2017-06-16T05:40:59.930Z,10
2017-06-16T05:41:59.962Z,5
2017-06-16T05:42:59.675Z,10
2017-06-16T05:44:00.008Z,10
2017-06-16T05:44:59.745Z,10
2017-06-16T05:46:00.082Z,10
2017-06-16T05:47:00.106Z,10
2017-06-16T05:48:00.126Z,10
2017-06-16T05:48:59.865Z,10
2017-06-16T05:50:00.512Z,10
2017-06-16T05:50:59.906Z,10
2017-06-16T05:52:00.558Z,10
2017-06-16T05:53:00.594Z,10
2017-06-16T05:54:00.315Z,10
2017-06-16T05:55:00.655Z,5
2017-06-16T05:56:00.062Z,10
2017-06-16T05:57:00.694Z,10
2017-06-16T05:58:00.415Z,10
2017-06-16T05:59:00.452Z,5
2017-06-16T06:00:00.485Z,10
2017-06-16T06:01:00.509Z,10
2017-06-16T06:02:00.529Z,10
2017-06-16T06:03:00.574Z,5
2017-06-16T06:04:00.912Z,10
2017-06-16T06:05:00.313Z,5
2017-06-16T06:06:00.968Z,10
2017-06-16T06:07:00.678Z,10
2017-06-16T06:08:01.276Z,10
2017-06-16T06:09:00.420Z,10
2017-06-16T06:10:00.776Z,10
2017-06-16T06:11:00.801Z,10
2017-06-16T06:12:01.143Z,10
2017-06-16T06:13:00.790Z,10
2017-06-16T06:14:00.889Z,5
2017-06-16T06:15:01.229Z,10
2017-06-16T06:16:00.933Z,5
2017-06-16T06:17:00.975Z,10
2017-06-16T06:18:01.311Z,10
2017-06-16T06:19:01.031Z,10
2017-06-16T06:20:01.061Z,10
2017-06-16T06:21:01.090Z,10
2017-06-16T06:22:01.119Z,10
2017-06-16T06:23:01.461Z,10
2017-06-16T06:24:01.476Z,10
2017-06-16T06:25:01.201Z,10
2017-06-16T06:26:01.549Z,10
2017-06-16T06:27:00.946Z,10
2017-06-16T06:28:01.230Z,10
2017-06-16T06:29:01.320Z,10
2017-06-16T06:30:01.652Z,10
2017-06-16T06:31:01.379Z,10
2017-06-16T06:32:01.407Z,10
2017-06-16T06:33:01.446Z,10
2017-06-16T06:34:01.470Z,10
2017-06-16T06:35:01.483Z,10
2017-06-16T06:36:01.829Z,10
2017-06-16T06:37:01.238Z,10
2017-06-16T06:38:01.883Z,10
2017-06-16T06:39:01.916Z,10
2017-06-16T06:40:01.941Z,10
2017-06-16T06:41:01.978Z,10
2017-06-16T06:42:01.379Z,10
2017-06-16T06:43:01.418Z,10
2017-06-16T06:44:01.784Z,10
2017-06-16T06:45:02.093Z,10
2017-06-16T06:46:02.121Z,10
2017-06-16T06:47:02.150Z,10
2017-06-16T06:48:02.430Z,10
2017-06-16T06:49:02.208Z,10
2017-06-16T06:50:01.606Z,10
2017-06-16T06:51:02.266Z,10
2017-06-16T06:52:01.997Z,10
2017-06-16T06:53:02.575Z,10
2017-06-16T06:54:01.730Z,15
2017-06-16T06:55:02.065Z,10
2017-06-16T06:56:02.429Z,10
2017-06-16T06:57:02.131Z,15
2017-06-16T06:58:02.779Z,15
2017-06-16T06:59:02.185Z,15
2017-06-16T07:00:01.896Z,15
2017-06-16T07:01:02.552Z,15
2017-06-16T07:02:02.266Z,20
2017-06-16T07:03:02.550Z,20
2017-06-16T07:04:02.345Z,15
2017-06-16T07:05:02.033Z,15
2017-06-16T07:06:02.386Z,15
2017-06-16T07:07:02.730Z,15
2017-06-16T07:08:03.038Z,15
2017-06-16T07:09:02.787Z,15
2017-06-16T07:10:02.811Z,15
2017-06-16T07:11:02.558Z,15
2017-06-16T07:12:02.563Z,15
2017-06-16T07:13:02.584Z,15
2017-06-16T07:14:02.855Z,15
2017-06-16T07:15:02.956Z,15
2017-06-16T07:16:02.961Z,15
2017-06-16T07:17:03.018Z,15
2017-06-16T07:18:03.040Z,15
2017-06-16T07:19:03.017Z,15
2017-06-16T07:20:03.104Z,15
2017-06-16T07:21:02.509Z,15
2017-06-16T07:22:03.167Z,15
2017-06-16T07:23:02.882Z,15
2017-06-16T07:24:02.624Z,15
2017-06-16T07:25:02.937Z,15
2017-06-16T07:26:02.957Z,15
2017-06-16T07:27:02.985Z,15
2017-06-16T07:28:03.322Z,15
2017-06-16T07:29:03.037Z,15
2017-06-16T07:30:03.381Z,15
2017-06-16T07:31:03.098Z,15
2017-06-16T07:32:02.825Z,15
2017-06-16T07:33:03.482Z,15
2017-06-16T07:34:02.811Z,15
2017-06-16T07:35:03.228Z,15
2017-06-16T07:36:03.578Z,15
2017-06-16T07:37:03.590Z,15
2017-06-16T07:38:03.304Z,15
2017-06-16T07:39:03.640Z,15
2017-06-16T07:40:03.669Z,15
2017-06-16T07:41:02.762Z,10
2017-06-16T07:42:03.730Z,10
2017-06-16T07:43:03.760Z,10
2017-06-16T07:44:04.052Z,10
2017-06-16T07:45:03.504Z,10
2017-06-16T07:46:02.916Z,15
2017-06-16T07:47:03.570Z,15
2017-06-16T07:48:03.282Z,10
2017-06-16T07:49:03.311Z,15
2017-06-16T07:50:03.336Z,15
2017-06-16T07:51:03.685Z,15
2017-06-16T07:52:03.706Z,15
2017-06-16T07:53:04.043Z,15
2017-06-16T07:54:03.756Z,15
2017-06-16T07:55:04.100Z,15
2017-06-16T07:56:04.145Z,15
2017-06-16T07:57:04.166Z,15
2017-06-16T07:58:03.580Z,15
2017-06-16T07:59:04.472Z,15
2017-06-16T08:00:03.625Z,15
2017-06-16T08:01:04.282Z,15
2017-06-16T08:02:04.298Z,15
2017-06-16T08:03:04.332Z,20
2017-06-16T08:04:04.619Z,20
2017-06-16T08:05:04.396Z,15
2017-06-16T08:06:03.801Z,15
2017-06-16T08:07:04.450Z,20
2017-06-16T08:08:04.475Z,25
2017-06-16T08:09:04.461Z,30
2017-06-16T08:10:04.545Z,30
2017-06-16T08:11:04.560Z,25
2017-06-16T08:12:04.287Z,40
2017-06-16T08:13:04.627Z,25
2017-06-16T08:14:04.657Z,20
2017-06-16T08:15:04.693Z,25
2017-06-16T08:16:03.790Z,35
2017-06-16T08:17:04.123Z,30
2017-06-16T08:18:04.459Z,30
2017-06-16T08:19:04.171Z,35
2017-06-16T08:20:04.525Z,30
2017-06-16T08:21:04.227Z,25
2017-06-16T08:22:04.886Z,15
2017-06-16T08:23:04.612Z,15
2017-06-16T08:24:04.579Z,20
2017-06-16T08:25:04.984Z,30
2017-06-16T08:26:05.001Z,35
2017-06-16T08:27:04.720Z,30
2017-06-16T08:28:05.054Z,25
2017-06-16T08:29:04.779Z,20
2017-06-16T08:30:05.121Z,30
2017-06-16T08:31:05.146Z,40
2017-06-16T08:32:04.238Z,35
2017-06-16T08:33:05.215Z,40
2017-06-16T08:34:05.232Z,25
2017-06-16T08:35:04.642Z,15
2017-06-16T08:36:04.660Z,15
2017-06-16T08:37:05.313Z,20
2017-06-16T08:38:05.030Z,35
2017-06-16T08:39:05.311Z,45
2017-06-16T08:40:05.396Z,40
2017-06-16T08:41:05.125Z,25
2017-06-16T08:42:04.838Z,20
2017-06-16T08:43:05.505Z,30
2017-06-16T08:44:05.452Z,25
2017-06-16T08:45:05.549Z,25
2017-06-16T08:46:05.577Z,15
2017-06-16T08:47:05.650Z,25
2017-06-16T08:48:05.331Z,20
2017-06-16T08:49:05.607Z,20
2017-06-16T08:50:05.072Z,20
2017-06-16T08:51:05.409Z,30
2017-06-16T08:52:05.445Z,25
2017-06-16T08:53:05.503Z,25
2017-06-16T08:54:05.436Z,20
2017-06-16T08:55:05.513Z,25
2017-06-16T08:56:05.557Z,25
2017-06-16T08:57:05.898Z,20
2017-06-16T08:58:05.615Z,25
2017-06-16T08:59:05.963Z,40
2017-06-16T09:00:06.003Z,30
2017-06-16T09:01:05.701Z,25
2017-06-16T09:02:05.738Z,45
2017-06-16T09:03:06.074Z,35
2017-06-16T09:04:06.355Z,30
2017-06-16T09:05:05.833Z,20
2017-06-16T09:06:05.858Z,30
2017-06-16T09:07:06.208Z,35
2017-06-16T09:08:05.901Z,35
2017-06-16T09:09:06.244Z,30
2017-06-16T09:10:06.305Z,25
2017-06-16T09:11:06.312Z,30
2017-06-16T09:12:06.338Z,20
2017-06-16T09:13:06.366Z,30
2017-06-16T09:14:06.646Z,35
2017-06-16T09:15:06.411Z,30
2017-06-16T09:16:06.449Z,25
2017-06-16T09:17:06.489Z,20
2017-06-16T09:18:06.198Z,20
2017-06-16T09:19:06.799Z,40
2017-06-16T09:20:06.255Z,30
2017-06-16T09:21:06.317Z,25
2017-06-16T09:22:06.318Z,25
2017-06-16T09:23:06.015Z,25
2017-06-16T09:24:06.104Z,30
2017-06-16T09:25:06.400Z,50
2017-06-16T09:26:05.805Z,35
2017-06-16T09:27:06.462Z,30
2017-06-16T09:28:06.493Z,20
2017-06-16T09:29:07.084Z,20
2017-06-16T09:30:06.876Z,25
2017-06-16T09:31:06.892Z,15
2017-06-16T09:32:06.610Z,25
2017-06-16T09:33:06.626Z,30
2017-06-16T09:34:07.228Z,30
2017-06-16T09:35:06.688Z,30
2017-06-16T09:36:06.732Z,30
2017-06-16T09:37:07.059Z,40
2017-06-16T09:38:06.791Z,35
2017-06-16T09:39:06.439Z,25
2017-06-16T09:40:07.164Z,25
2017-06-16T09:41:07.181Z,35
2017-06-16T09:42:07.210Z,25
2017-06-16T09:43:07.247Z,25
2017-06-16T09:44:06.894Z,30
2017-06-16T09:45:07.306Z,55
2017-06-16T09:46:07.329Z,40
2017-06-16T09:47:07.362Z,30
2017-06-16T09:48:07.392Z,25
2017-06-16T09:49:07.669Z,25
2017-06-16T09:50:07.440Z,20
2017-06-16T09:51:07.173Z,30
2017-06-16T09:52:07.510Z,35
2017-06-16T09:53:07.222Z,25
2017-06-16T09:54:07.257Z,30
2017-06-16T09:55:07.275Z,30
2017-06-16T09:56:06.998Z,30
2017-06-16T09:57:07.342Z,30
2017-06-16T09:58:07.376Z,30
2017-06-16T09:59:07.648Z,30
2017-06-16T10:00:07.113Z,35
2017-06-16T10:01:07.145Z,35
2017-06-16T10:02:06.859Z,50
2017-06-16T10:03:07.834Z,55
2017-06-16T10:04:08.108Z,40
2017-06-16T10:05:07.257Z,20
2017-06-16T10:06:07.917Z,25
2017-06-16T10:07:07.634Z,30
2017-06-16T10:08:07.355Z,35
2017-06-16T10:09:07.694Z,45
2017-06-16T10:10:07.712Z,35
2017-06-16T10:11:07.761Z,20
2017-06-16T10:12:07.785Z,20
2017-06-16T10:13:07.811Z,30
2017-06-16T10:14:07.828Z,25
2017-06-16T10:15:07.561Z,30
2017-06-16T10:16:08.217Z,30
2017-06-16T10:17:07.950Z,30
2017-06-16T10:18:07.995Z,30
2017-06-16T10:19:07.655Z,30
2017-06-16T10:20:07.397Z,35
2017-06-16T10:21:08.353Z,35
2017-06-16T10:22:08.390Z,30
2017-06-16T10:23:08.420Z,50
2017-06-16T10:24:07.752Z,55
2017-06-16T10:25:07.236Z,45
2017-06-16T10:26:08.509Z,35
2017-06-16T10:27:08.218Z,30
2017-06-16T10:28:08.558Z,30
2017-06-16T10:29:08.851Z,35
2017-06-16T10:30:08.320Z,35
2017-06-16T10:31:08.650Z,35
2017-06-16T10:32:08.362Z,45
2017-06-16T10:33:08.708Z,65
2017-06-16T10:34:08.415Z,55
2017-06-16T10:35:08.446Z,50
2017-06-16T10:36:08.178Z,50
2017-06-16T10:37:08.825Z,45
2017-06-16T10:38:08.846Z,55
2017-06-16T10:39:08.891Z,40
2017-06-16T10:40:08.904Z,40
2017-06-16T10:41:08.001Z,35
2017-06-16T10:42:08.346Z,40
2017-06-16T10:43:08.678Z,45
2017-06-16T10:44:08.973Z,50
2017-06-16T10:45:08.749Z,45
2017-06-16T10:46:08.778Z,55
2017-06-16T10:47:08.490Z,60
2017-06-16T10:48:08.517Z,50
2017-06-16T10:49:08.860Z,55
2017-06-16T10:50:08.892Z,60
2017-06-16T10:51:08.920Z,70
2017-06-16T10:52:08.950Z,60
2017-06-16T10:53:09.291Z,50
2017-06-16T10:54:09.571Z,50
2017-06-16T10:55:09.040Z,60
2017-06-16T10:56:09.375Z,60
2017-06-16T10:57:09.414Z,50
2017-06-16T10:58:09.127Z,65
2017-06-16T10:59:09.403Z,70
2017-06-16T11:00:09.186Z,45
2017-06-16T11:01:09.520Z,60
2017-06-16T11:02:09.245Z,65
2017-06-16T11:03:09.593Z,65
2017-06-16T11:04:11.123Z,35
2017-06-16T11:05:09.645Z,35
2017-06-16T11:06:09.365Z,55
2017-06-16T11:07:09.082Z,65
2017-06-16T11:08:09.734Z,55
2017-06-16T11:09:09.459Z,70
2017-06-16T11:10:09.167Z,80
2017-06-16T11:11:09.821Z,80
2017-06-16T11:12:09.242Z,80
2017-06-16T11:13:09.902Z,85
2017-06-16T11:14:09.311Z,80
2017-06-16T11:15:10.193Z,70
2017-06-16T11:16:09.978Z,55
2017-06-16T11:17:10.002Z,65
2017-06-16T11:18:10.040Z,85
2017-06-16T11:19:10.057Z,75
2017-06-16T11:20:10.037Z,75
2017-06-16T11:21:09.822Z,95
2017-06-16T11:22:09.545Z,115
2017-06-16T11:23:10.310Z,105
2017-06-16T11:24:09.902Z,70
2017-06-16T11:25:09.934Z,125
2017-06-16T11:26:10.301Z,85
2017-06-16T11:27:09.978Z,80
2017-06-16T11:28:09.707Z,105
2017-06-16T11:29:10.360Z,175
2017-06-16T11:30:09.453Z,410
2017-06-16T11:31:10.422Z,125
2017-06-16T11:32:10.135Z,110
2017-06-16T11:33:10.491Z,80
2017-06-16T11:34:10.512Z,125
2017-06-16T11:35:09.913Z,355
2017-06-16T11:36:10.255Z,410
2017-06-16T11:37:10.604Z,455
2017-06-16T11:38:10.667Z,110
2017-06-16T11:39:10.348Z,60
2017-06-16T11:40:10.938Z,55
2017-06-16T11:41:10.415Z,60
2017-06-16T11:42:10.751Z,75
2017-06-16T11:43:10.187Z,115
2017-06-16T11:44:10.493Z,360
2017-06-16T11:45:10.466Z,420
2017-06-16T11:46:09.926Z,650
2017-06-16T11:47:10.894Z,80
2017-06-16T11:48:10.304Z,145
2017-06-16T11:49:10.965Z,85
2017-06-16T11:50:10.681Z,195
2017-06-16T11:51:10.698Z,40
2017-06-16T11:52:11.052Z,35
2017-06-16T11:53:10.455Z,50
2017-06-16T11:54:10.798Z,55
2017-06-16T11:55:11.081Z,35
2017-06-16T11:56:10.546Z,60
2017-06-16T11:57:10.894Z,90
2017-06-16T11:58:10.916Z,290
2017-06-16T11:59:11.273Z,70
2017-06-16T12:00:11.245Z,40
2017-06-16T12:01:10.703Z,35
2017-06-16T12:02:11.043Z,35
2017-06-16T12:03:11.383Z,35
2017-06-16T12:04:11.105Z,50
2017-06-16T12:05:11.173Z,85
2017-06-16T12:06:11.477Z,60
2017-06-16T12:07:10.883Z,55
2017-06-16T12:08:11.219Z,360
2017-06-16T12:09:11.665Z,185
2017-06-16T12:10:10.917Z,735
2017-06-16T12:11:11.630Z,45
2017-06-16T12:12:11.707Z,30
2017-06-16T12:13:11.689Z,40
2017-06-16T12:14:11.400Z,60
2017-06-16T12:15:10.530Z,110
2017-06-16T12:16:11.764Z,60
2017-06-16T12:17:11.491Z,55
2017-06-16T12:18:11.893Z,55
2017-06-16T12:19:11.874Z,60
2017-06-16T12:20:11.847Z,65
2017-06-16T12:21:11.302Z,740
2017-06-16T12:22:11.028Z,750
2017-06-16T12:23:11.996Z,825
2017-06-16T12:24:12.025Z,160
2017-06-16T12:25:12.026Z,775
2017-06-16T12:26:12.087Z,955
2017-06-16T12:27:11.485Z,140
2017-06-16T12:28:12.151Z,85
2017-06-16T12:29:12.180Z,90
2017-06-16T12:30:12.141Z,780
2017-06-16T12:31:11.920Z,810
2017-06-16T12:32:11.968Z,845
2017-06-16T12:33:12.295Z,1040
2017-06-16T12:34:12.021Z,1115
2017-06-16T12:35:11.429Z,1090
2017-06-16T12:36:11.451Z,935
2017-06-16T12:37:12.435Z,895
2017-06-16T12:38:12.136Z,1135
2017-06-16T12:39:12.190Z,1070
2017-06-16T12:40:12.569Z,935
2017-06-16T12:41:12.234Z,995
2017-06-16T12:42:12.275Z,1015
2017-06-16T12:43:12.000Z,1025
2017-06-16T12:44:12.342Z,905
2017-06-16T12:45:12.686Z,805
2017-06-16T12:46:12.713Z,870
2017-06-16T12:47:12.443Z,930
2017-06-16T12:48:12.151Z,970
2017-06-16T12:49:12.509Z,930
2017-06-16T12:50:12.544Z,815
2017-06-16T12:51:12.245Z,280
2017-06-16T12:52:12.307Z,175
2017-06-16T12:53:12.973Z,70
2017-06-16T12:54:12.986Z,65
2017-06-16T12:55:12.970Z,65
2017-06-16T12:56:12.423Z,170
2017-06-16T12:57:12.770Z,460
2017-06-16T12:58:13.117Z,70
2017-06-16T12:59:13.147Z,170
2017-06-16T13:00:13.165Z,805
2017-06-16T13:01:12.906Z,90
2017-06-16T13:02:13.247Z,910
2017-06-16T13:03:13.275Z,600
2017-06-16T13:04:13.309Z,680
2017-06-16T13:05:13.598Z,365
2017-06-16T13:06:13.059Z,155
2017-06-16T13:07:13.413Z,85
2017-06-16T13:08:13.128Z,50
2017-06-16T13:09:13.477Z,40
2017-06-16T13:10:13.137Z,40
2017-06-16T13:11:13.534Z,60
2017-06-16T13:12:13.268Z,75
2017-06-16T13:13:13.623Z,115
2017-06-16T13:14:13.321Z,60
2017-06-16T13:15:13.666Z,55
2017-06-16T13:16:12.754Z,50
2017-06-16T13:17:13.419Z,55
2017-06-16T13:18:13.756Z,60
2017-06-16T13:19:13.477Z,45
2017-06-16T13:20:13.449Z,65
2017-06-16T13:21:13.863Z,165
2017-06-16T13:22:13.882Z,210
2017-06-16T13:23:13.920Z,125
2017-06-16T13:24:13.949Z,75
2017-06-16T13:25:13.605Z,55
2017-06-16T13:26:14.015Z,40
2017-06-16T13:27:14.043Z,30
2017-06-16T13:28:13.759Z,30
2017-06-16T13:29:14.117Z,35
2017-06-16T13:30:13.765Z,40
2017-06-16T13:31:13.535Z,40
2017-06-16T13:32:13.572Z,50
2017-06-16T13:33:13.615Z,40
2017-06-16T13:34:13.327Z,40
2017-06-16T13:35:13.978Z,50
2017-06-16T13:36:14.323Z,90
2017-06-16T13:37:14.391Z,100
2017-06-16T13:38:14.076Z,145
2017-06-16T13:39:14.461Z,145
2017-06-16T13:40:14.704Z,140
2017-06-16T13:41:14.478Z,155
2017-06-16T13:42:14.199Z,125
2017-06-16T13:43:14.264Z,130
2017-06-16T13:44:14.571Z,130
2017-06-16T13:45:13.981Z,140
2017-06-16T13:46:14.582Z,135
2017-06-16T13:47:14.684Z,130
2017-06-16T13:48:14.715Z,120
2017-06-16T13:49:14.417Z,125
2017-06-16T13:50:14.765Z,125
2017-06-16T13:51:14.102Z,145
2017-06-16T13:52:14.830Z,145
2017-06-16T13:53:14.240Z,150
2017-06-16T13:54:14.901Z,90
2017-06-16T13:55:14.612Z,95
2017-06-16T13:56:14.978Z,95
2017-06-16T13:57:14.986Z,75
2017-06-16T13:58:14.711Z,80
2017-06-16T13:59:14.433Z,80
2017-06-16T14:00:14.453Z,90
2017-06-16T14:01:15.050Z,90
2017-06-16T14:02:15.146Z,65
2017-06-16T14:03:14.859Z,50
2017-06-16T14:04:15.203Z,45
2017-06-16T14:05:14.924Z,35
2017-06-16T14:06:15.218Z,45
2017-06-16T14:07:15.337Z,60
2017-06-16T14:08:15.028Z,75
2017-06-16T14:09:15.068Z,120
2017-06-16T14:10:15.087Z,80
2017-06-16T14:11:15.374Z,55
2017-06-16T14:12:14.839Z,35
2017-06-16T14:13:15.196Z,30
2017-06-16T14:14:15.219Z,25
2017-06-16T14:15:15.556Z,25
2017-06-16T14:16:15.521Z,45
2017-06-16T14:17:14.678Z,40
2017-06-16T14:18:14.699Z,35
2017-06-16T14:19:15.672Z,30
2017-06-16T14:20:15.704Z,35
2017-06-16T14:21:15.689Z,45
2017-06-16T14:22:15.150Z,80
2017-06-16T14:23:15.807Z,55
2017-06-16T14:24:15.832Z,65
2017-06-16T14:25:15.581Z,120